sensor_id;sensor_type;location;lat;lon;timestamp;pressure;altitude;pressure_sealevel;temperature;humidity
73692;BME280;61996;49.910;35.562;2023-05-01T00:01:17;98638.00;;;18.78;43.08
73692;BME280;61996;49.910;35.562;2023-05-01T00:04:19;98640.47;;;18.79;42.98
73692;BME280;61996;49.910;35.562;2023-05-01T00:07:23;98650.97;;;18.81;43.05
73692;BME280;61996;49.910;35.562;2023-05-01T00:10:29;98650.97;;;18.81;42.90
73692;BME280;61996;49.910;35.562;2023-05-01T00:13:34;98664.75;;;18.76;43.14
73692;BME280;61996;49.910;35.562;2023-05-01T00:16:37;98661.97;;;18.78;43.00
73692;BME280;61996;49.910;35.562;2023-05-01T00:19:39;98677.44;;;18.82;43.10
73692;BME280;61996;49.910;35.562;2023-05-01T00:22:42;98683.41;;;18.76;42.93
73692;BME280;61996;49.910;35.562;2023-05-01T00:25:45;98672.63;;;18.78;42.95
73692;BME280;61996;49.910;35.562;2023-05-01T00:28:49;98675.59;;;18.75;43.03
73692;BME280;61996;49.910;35.562;2023-05-01T00:31:52;98679.75;;;18.77;42.89
73692;BME280;61996;49.910;35.562;2023-05-01T00:34:55;98673.28;;;18.80;42.79
73692;BME280;61996;49.910;35.562;2023-05-01T00:37:59;98681.75;;;18.75;42.88
73692;BME280;61996;49.910;35.562;2023-05-01T00:41:01;98684.94;;;18.79;42.81
73692;BME280;61996;49.910;35.562;2023-05-01T00:44:06;98689.25;;;18.80;43.00
73692;BME280;61996;49.910;35.562;2023-05-01T00:47:08;98695.56;;;18.71;42.87
73692;BME280;61996;49.910;35.562;2023-05-01T00:50:11;98694.19;;;18.67;43.04
73692;BME280;61996;49.910;35.562;2023-05-01T00:53:14;98692.72;;;18.72;42.95
73692;BME280;61996;49.910;35.562;2023-05-01T00:56:17;98692.19;;;18.69;42.97
73692;BME280;61996;49.910;35.562;2023-05-01T00:59:23;98685.03;;;18.69;43.08
73692;BME280;61996;49.910;35.562;2023-05-01T01:02:26;98686.88;;;18.69;42.95
73692;BME280;61996;49.910;35.562;2023-05-01T01:05:29;98691.72;;;18.73;42.87
73692;BME280;61996;49.910;35.562;2023-05-01T01:08:35;98694.56;;;18.72;42.83
73692;BME280;61996;49.910;35.562;2023-05-01T01:11:42;98694.59;;;18.80;42.92
73692;BME280;61996;49.910;35.562;2023-05-01T01:14:52;98696.72;;;18.76;42.75
73692;BME280;61996;49.910;35.562;2023-05-01T01:17:58;98693.56;;;18.73;42.77
73692;BME280;61996;49.910;35.562;2023-05-01T01:21:07;98693.88;;;18.70;42.79
73692;BME280;61996;49.910;35.562;2023-05-01T01:34:06;98695.88;;;18.68;42.83
73692;BME280;61996;49.910;35.562;2023-05-01T01:37:12;98696.53;;;18.70;42.89
73692;BME280;61996;49.910;35.562;2023-05-01T01:40:18;98694.69;;;18.70;42.90
73692;BME280;61996;49.910;35.562;2023-05-01T01:43:23;98697.53;;;18.69;42.86
73692;BME280;61996;49.910;35.562;2023-05-01T01:46:27;98706.88;;;18.73;42.97
73692;BME280;61996;49.910;35.562;2023-05-01T01:49:31;98703.38;;;18.72;42.98
73692;BME280;61996;49.910;35.562;2023-05-01T01:52:36;98706.50;;;18.68;43.06
73692;BME280;61996;49.910;35.562;2023-05-01T01:55:40;98699.13;;;18.61;43.24
73692;BME280;61996;49.910;35.562;2023-05-01T01:58:45;98702.13;;;18.58;43.37
73692;BME280;61996;49.910;35.562;2023-05-01T02:01:48;98694.81;;;18.60;43.40
73692;BME280;61996;49.910;35.562;2023-05-01T02:04:54;98708.78;;;18.62;43.28
73692;BME280;61996;49.910;35.562;2023-05-01T02:07:58;98710.44;;;18.63;43.41
73692;BME280;61996;49.910;35.562;2023-05-01T02:11:02;98708.47;;;18.66;43.50
73692;BME280;61996;49.910;35.562;2023-05-01T02:14:05;98709.00;;;18.69;43.21
73692;BME280;61996;49.910;35.562;2023-05-01T02:17:09;98710.31;;;18.65;43.33
73692;BME280;61996;49.910;35.562;2023-05-01T02:20:13;98708.34;;;18.67;43.20
73692;BME280;61996;49.910;35.562;2023-05-01T02:23:17;98719.31;;;18.64;43.17
73692;BME280;61996;49.910;35.562;2023-05-01T02:26:19;98716.47;;;18.66;43.10
73692;BME280;61996;49.910;35.562;2023-05-01T02:29:24;98717.00;;;18.69;43.15
73692;BME280;61996;49.910;35.562;2023-05-01T02:32:28;98731.91;;;18.62;43.04
73692;BME280;61996;49.910;35.562;2023-05-01T02:35:38;98730.03;;;18.72;43.03
73692;BME280;61996;49.910;35.562;2023-05-01T02:38:42;98736.69;;;18.76;43.18
73692;BME280;61996;49.910;35.562;2023-05-01T02:41:47;98743.50;;;18.71;43.08
73692;BME280;61996;49.910;35.562;2023-05-01T02:44:50;98744.09;;;18.65;43.08
73692;BME280;61996;49.910;35.562;2023-05-01T02:47:56;98748.28;;;18.67;43.05
73692;BME280;61996;49.910;35.562;2023-05-01T02:51:02;98754.75;;;18.65;43.08
73692;BME280;61996;49.910;35.562;2023-05-01T02:54:05;98748.91;;;18.61;43.01
73692;BME280;61996;49.910;35.562;2023-05-01T02:57:09;98757.28;;;18.66;42.94
73692;BME280;61996;49.910;35.562;2023-05-01T03:00:12;98759.25;;;18.64;43.03
73692;BME280;61996;49.910;35.562;2023-05-01T03:03:15;98762.22;;;18.61;43.10
73692;BME280;61996;49.910;35.562;2023-05-01T03:06:20;98768.69;;;18.58;43.02
73692;BME280;61996;49.910;35.562;2023-05-01T03:09:22;98776.97;;;18.55;43.04
73692;BME280;61996;49.910;35.562;2023-05-01T03:12:25;98780.66;;;18.54;42.96
73692;BME280;61996;49.910;35.562;2023-05-01T03:15:28;98782.31;;;18.55;42.99
73692;BME280;61996;49.910;35.562;2023-05-01T03:18:31;98783.00;;;18.57;42.94
73692;BME280;61996;49.910;35.562;2023-05-01T03:21:35;98781.69;;;18.61;42.86
73692;BME280;61996;49.910;35.562;2023-05-01T03:24:38;98785.66;;;18.57;42.85
73692;BME280;61996;49.910;35.562;2023-05-01T03:27:41;98790.16;;;18.57;42.98
73692;BME280;61996;49.910;35.562;2023-05-01T03:30:43;98801.16;;;18.62;42.76
73692;BME280;61996;49.910;35.562;2023-05-01T03:33:46;98805.16;;;18.58;42.71
73692;BME280;61996;49.910;35.562;2023-05-01T03:36:50;98800.66;;;18.58;42.71
73692;BME280;61996;49.910;35.562;2023-05-01T03:39:53;98811.81;;;18.62;42.84
73692;BME280;61996;49.910;35.562;2023-05-01T03:42:56;98811.66;;;18.63;42.72
73692;BME280;61996;49.910;35.562;2023-05-01T03:45:59;98819.78;;;18.62;42.81
73692;BME280;61996;49.910;35.562;2023-05-01T03:49:02;98819.50;;;18.65;42.62
73692;BME280;61996;49.910;35.562;2023-05-01T03:52:06;98818.47;;;18.58;42.75
73692;BME280;61996;49.910;35.562;2023-05-01T03:55:09;98826.28;;;18.59;42.77
73692;BME280;61996;49.910;35.562;2023-05-01T03:58:12;98817.63;;;18.57;42.80
73692;BME280;61996;49.910;35.562;2023-05-01T04:01:15;98821.78;;;18.60;42.68
73692;BME280;61996;49.910;35.562;2023-05-01T04:04:18;98822.94;;;18.57;42.71
73692;BME280;61996;49.910;35.562;2023-05-01T04:07:22;98824.63;;;18.58;42.77
73692;BME280;61996;49.910;35.562;2023-05-01T04:10:25;98831.59;;;18.59;42.81
73692;BME280;61996;49.910;35.562;2023-05-01T04:13:28;98837.09;;;18.58;42.82
73692;BME280;61996;49.910;35.562;2023-05-01T04:16:31;98834.94;;;18.61;42.81
73692;BME280;61996;49.910;35.562;2023-05-01T04:19:34;98835.28;;;18.58;42.89
73692;BME280;61996;49.910;35.562;2023-05-01T04:22:39;98839.75;;;18.58;42.87
73692;BME280;61996;49.910;35.562;2023-05-01T04:25:42;98839.22;;;18.54;42.86
73692;BME280;61996;49.910;35.562;2023-05-01T04:28:46;98840.88;;;18.55;42.85
73692;BME280;61996;49.910;35.562;2023-05-01T04:31:49;98852.69;;;18.53;42.91
73692;BME280;61996;49.910;35.562;2023-05-01T04:34:52;98848.59;;;18.58;42.72
73692;BME280;61996;49.910;35.562;2023-05-01T04:37:56;98855.19;;;18.54;42.86
73692;BME280;61996;49.910;35.562;2023-05-01T04:40:59;98853.75;;;18.60;42.58
73692;BME280;61996;49.910;35.562;2023-05-01T04:44:01;98865.19;;;18.52;42.74
73692;BME280;61996;49.910;35.562;2023-05-01T04:47:04;98863.03;;;18.56;42.76
73692;BME280;61996;49.910;35.562;2023-05-01T04:50:08;98865.56;;;18.57;42.65
73692;BME280;61996;49.910;35.562;2023-05-01T04:53:12;98859.69;;;18.54;42.64
73692;BME280;61996;49.910;35.562;2023-05-01T04:56:15;98868.50;;;18.54;42.77
73692;BME280;61996;49.910;35.562;2023-05-01T04:59:18;98872.84;;;18.55;42.63
73692;BME280;61996;49.910;35.562;2023-05-01T05:02:21;98872.34;;;18.52;42.79
73692;BME280;61996;49.910;35.562;2023-05-01T05:05:24;98874.66;;;18.55;42.86
73692;BME280;61996;49.910;35.562;2023-05-01T05:08:28;98869.84;;;18.50;42.88
73692;BME280;61996;49.910;35.562;2023-05-01T05:11:31;98873.16;;;18.52;42.87
73692;BME280;61996;49.910;35.562;2023-05-01T05:14:34;98873.69;;;18.56;42.67
73692;BME280;61996;49.910;35.562;2023-05-01T05:17:37;98872.72;;;18.57;42.74
73692;BME280;61996;49.910;35.562;2023-05-01T05:20:40;98879.16;;;18.54;42.81
73692;BME280;61996;49.910;35.562;2023-05-01T05:23:44;98882.16;;;18.51;42.83
73692;BME280;61996;49.910;35.562;2023-05-01T05:26:47;98880.84;;;18.55;42.85
73692;BME280;61996;49.910;35.562;2023-05-01T05:29:50;98882.03;;;18.61;42.82
73692;BME280;61996;49.910;35.562;2023-05-01T05:32:52;98887.38;;;18.61;42.67
73692;BME280;61996;49.910;35.562;2023-05-01T05:35:56;98891.19;;;18.58;42.84
73692;BME280;61996;49.910;35.562;2023-05-01T05:39:01;98895.19;;;18.62;42.77
73692;BME280;61996;49.910;35.562;2023-05-01T05:42:04;98890.19;;;18.59;43.09
73692;BME280;61996;49.910;35.562;2023-05-01T05:45:07;98891.03;;;18.60;42.93
73692;BME280;61996;49.910;35.562;2023-05-01T05:48:10;98894.63;;;18.69;42.73
73692;BME280;61996;49.910;35.562;2023-05-01T05:51:13;98892.84;;;18.59;42.95
73692;BME280;61996;49.910;35.562;2023-05-01T05:54:17;98891.88;;;18.60;42.77
73692;BME280;61996;49.910;35.562;2023-05-01T05:57:20;98905.44;;;18.67;42.79
73692;BME280;61996;49.910;35.562;2023-05-01T06:00:23;98907.75;;;18.70;42.45
73692;BME280;61996;49.910;35.562;2023-05-01T06:03:26;98909.22;;;18.65;42.59
73692;BME280;61996;49.910;35.562;2023-05-01T06:06:29;98907.50;;;18.63;42.93
73692;BME280;61996;49.910;35.562;2023-05-01T06:09:34;98913.84;;;18.62;43.00
73692;BME280;61996;49.910;35.562;2023-05-01T06:12:36;98911.19;;;18.62;42.89
73692;BME280;61996;49.910;35.562;2023-05-01T06:15:48;98906.84;;;18.61;42.76
73692;BME280;61996;49.910;35.562;2023-05-01T06:18:51;98917.59;;;18.70;42.77
73692;BME280;61996;49.910;35.562;2023-05-01T06:21:54;98911.59;;;18.68;42.71
73692;BME280;61996;49.910;35.562;2023-05-01T06:24:58;98923.31;;;18.57;42.92
73692;BME280;61996;49.910;35.562;2023-05-01T06:28:01;98922.66;;;18.63;42.61
73692;BME280;61996;49.910;35.562;2023-05-01T06:31:04;98923.50;;;18.63;42.69
73692;BME280;61996;49.910;35.562;2023-05-01T06:34:07;98932.34;;;18.64;42.63
73692;BME280;61996;49.910;35.562;2023-05-01T06:37:10;98926.88;;;18.66;42.57
73692;BME280;61996;49.910;35.562;2023-05-01T06:40:14;98935.47;;;18.59;42.82
73692;BME280;61996;49.910;35.562;2023-05-01T06:43:17;98932.44;;;18.72;42.56
73692;BME280;61996;49.910;35.562;2023-05-01T06:46:20;98934.28;;;18.72;42.64
73692;BME280;61996;49.910;35.562;2023-05-01T06:49:23;98937.38;;;18.67;42.64
73692;BME280;61996;49.910;35.562;2023-05-01T06:52:26;98939.72;;;18.70;42.62
73692;BME280;61996;49.910;35.562;2023-05-01T06:55:30;98943.25;;;18.71;42.58
73692;BME280;61996;49.910;35.562;2023-05-01T06:58:36;98945.22;;;18.69;42.54
73692;BME280;61996;49.910;35.562;2023-05-01T07:01:38;98949.72;;;18.68;42.63
73692;BME280;61996;49.910;35.562;2023-05-01T07:04:42;98942.56;;;18.69;42.76
73692;BME280;61996;49.910;35.562;2023-05-01T07:07:45;98949.44;;;18.61;42.77
73692;BME280;61996;49.910;35.562;2023-05-01T07:11:02;98965.00;;;18.66;42.60
73692;BME280;61996;49.910;35.562;2023-05-01T07:14:05;98965.53;;;18.70;42.65
73692;BME280;61996;49.910;35.562;2023-05-01T07:17:08;98966.09;;;18.63;42.69
73692;BME280;61996;49.910;35.562;2023-05-01T07:20:10;98980.75;;;18.59;42.76
73692;BME280;61996;49.910;35.562;2023-05-01T07:23:14;98975.34;;;18.69;42.50
73692;BME280;61996;49.910;35.562;2023-05-01T07:26:18;98976.41;;;18.58;42.65
73692;BME280;61996;49.910;35.562;2023-05-01T07:29:21;98986.00;;;18.69;42.62
73692;BME280;61996;49.910;35.562;2023-05-01T07:32:24;98986.31;;;18.66;42.55
73692;BME280;61996;49.910;35.562;2023-05-01T07:35:27;98992.91;;;18.62;42.59
73692;BME280;61996;49.910;35.562;2023-05-01T07:38:30;98991.19;;;18.71;42.57
73692;BME280;61996;49.910;35.562;2023-05-01T07:41:34;99005.09;;;18.65;42.65
73692;BME280;61996;49.910;35.562;2023-05-01T07:44:37;98996.53;;;18.71;42.57
73692;BME280;61996;49.910;35.562;2023-05-01T07:47:39;99007.03;;;18.62;42.60
73692;BME280;61996;49.910;35.562;2023-05-01T07:50:42;98999.31;;;18.69;42.64
73692;BME280;61996;49.910;35.562;2023-05-01T07:53:45;99018.28;;;18.66;42.66
73692;BME280;61996;49.910;35.562;2023-05-01T07:56:50;99016.72;;;18.63;42.74
73692;BME280;61996;49.910;35.562;2023-05-01T07:59:53;99018.13;;;18.68;42.44
73692;BME280;61996;49.910;35.562;2023-05-01T08:02:57;99020.06;;;18.66;42.50
73692;BME280;61996;49.910;35.562;2023-05-01T08:06:00;99023.16;;;18.71;42.59
73692;BME280;61996;49.910;35.562;2023-05-01T08:09:03;99026.50;;;18.73;42.72
73692;BME280;61996;49.910;35.562;2023-05-01T08:12:07;99029.84;;;18.75;42.56
73692;BME280;61996;49.910;35.562;2023-05-01T08:15:10;99038.66;;;18.75;42.56
73692;BME280;61996;49.910;35.562;2023-05-01T08:18:13;99031.16;;;18.71;42.48
73692;BME280;61996;49.910;35.562;2023-05-01T08:21:21;99032.66;;;18.73;42.55
73692;BME280;61996;49.910;35.562;2023-05-01T08:24:23;99049.47;;;18.74;42.73
73692;BME280;61996;49.910;35.562;2023-05-01T08:27:28;99044.47;;;18.71;42.52
73692;BME280;61996;49.910;35.562;2023-05-01T08:30:30;99052.75;;;18.68;42.64
73692;BME280;61996;49.910;35.562;2023-05-01T08:33:33;99063.97;;;18.61;42.67
73692;BME280;61996;49.910;35.562;2023-05-01T08:36:36;99060.03;;;18.66;42.81
73692;BME280;61996;49.910;35.562;2023-05-01T08:39:39;99067.56;;;18.70;42.89
73692;BME280;61996;49.910;35.562;2023-05-01T08:42:43;99073.75;;;18.71;42.97
73692;BME280;61996;49.910;35.562;2023-05-01T08:45:46;99066.44;;;18.73;42.78
73692;BME280;61996;49.910;35.562;2023-05-01T08:48:49;99062.78;;;18.74;42.70
73692;BME280;61996;49.910;35.562;2023-05-01T08:51:53;99051.97;;;18.75;42.86
73692;BME280;61996;49.910;35.562;2023-05-01T08:54:57;99058.53;;;18.81;42.81
73692;BME280;61996;49.910;35.562;2023-05-01T08:58:03;99056.53;;;18.83;42.76
73692;BME280;61996;49.910;35.562;2023-05-01T09:01:08;99070.84;;;18.82;42.92
73692;BME280;61996;49.910;35.562;2023-05-01T09:04:11;99066.69;;;18.79;42.93
73692;BME280;61996;49.910;35.562;2023-05-01T09:07:14;99068.03;;;18.83;42.92
73692;BME280;61996;49.910;35.562;2023-05-01T09:10:17;99073.53;;;18.82;43.04
73692;BME280;61996;49.910;35.562;2023-05-01T09:13:22;99080.06;;;18.87;42.84
73692;BME280;61996;49.910;35.562;2023-05-01T09:16:26;99092.56;;;18.87;42.77
73692;BME280;61996;49.910;35.562;2023-05-01T09:19:30;99089.75;;;18.88;42.72
73692;BME280;61996;49.910;35.562;2023-05-01T09:22:33;99098.72;;;18.87;42.86
73692;BME280;61996;49.910;35.562;2023-05-01T09:25:39;99098.72;;;18.87;42.65
73692;BME280;61996;49.910;35.562;2023-05-01T09:28:46;99101.78;;;18.93;42.49
73692;BME280;61996;49.910;35.562;2023-05-01T09:31:49;99095.63;;;18.92;42.45
73692;BME280;61996;49.910;35.562;2023-05-01T09:34:52;99105.28;;;18.93;42.59
73692;BME280;61996;49.910;35.562;2023-05-01T09:37:55;99109.28;;;18.97;42.63
73692;BME280;61996;49.910;35.562;2023-05-01T09:41:02;99107.78;;;18.95;42.43
73692;BME280;61996;49.910;35.562;2023-05-01T09:44:16;99107.63;;;18.96;42.55
73692;BME280;61996;49.910;35.562;2023-05-01T09:47:19;99115.94;;;18.93;42.65
73692;BME280;61996;49.910;35.562;2023-05-01T09:50:32;99121.94;;;18.95;42.55
73692;BME280;61996;49.910;35.562;2023-05-01T09:53:36;99125.28;;;18.97;42.78
73692;BME280;61996;49.910;35.562;2023-05-01T09:56:45;99134.94;;;18.98;42.54
73692;BME280;61996;49.910;35.562;2023-05-01T10:00:01;99128.56;;;19.09;42.38
73692;BME280;61996;49.910;35.562;2023-05-01T10:03:11;99127.91;;;19.07;42.44
73692;BME280;61996;49.910;35.562;2023-05-01T10:06:24;99132.69;;;19.03;43.45
73692;BME280;61996;49.910;35.562;2023-05-01T10:09:28;99126.34;;;19.04;43.06
73692;BME280;61996;49.910;35.562;2023-05-01T10:12:32;99132.06;;;19.09;42.94
73692;BME280;61996;49.910;35.562;2023-05-01T10:15:38;99133.13;;;19.16;43.14
73692;BME280;61996;49.910;35.562;2023-05-01T10:18:41;99135.41;;;19.11;42.72
73692;BME280;61996;49.910;35.562;2023-05-01T10:21:45;99134.44;;;19.12;42.90
73692;BME280;61996;49.910;35.562;2023-05-01T10:24:48;99138.06;;;19.11;42.89
73692;BME280;61996;49.910;35.562;2023-05-01T10:27:52;99140.75;;;19.11;42.81
73692;BME280;61996;49.910;35.562;2023-05-01T10:30:58;99144.25;;;19.12;42.81
73692;BME280;61996;49.910;35.562;2023-05-01T10:34:02;99139.78;;;19.12;42.87
73692;BME280;61996;49.910;35.562;2023-05-01T10:37:07;99150.81;;;19.17;42.86
73692;BME280;61996;49.910;35.562;2023-05-01T10:43:34;99153.19;;;19.21;42.63
73692;BME280;61996;49.910;35.562;2023-05-01T10:46:38;99157.50;;;19.22;42.89
73692;BME280;61996;49.910;35.562;2023-05-01T10:53:15;99161.53;;;19.26;42.55
73692;BME280;61996;49.910;35.562;2023-05-01T11:06:20;99174.25;;;19.32;42.59
73692;BME280;61996;49.910;35.562;2023-05-01T11:09:38;99175.94;;;19.33;42.22
73692;BME280;61996;49.910;35.562;2023-05-01T11:12:50;99181.97;;;19.35;42.36
73692;BME280;61996;49.910;35.562;2023-05-01T11:15:54;99184.09;;;19.31;42.37
73692;BME280;61996;49.910;35.562;2023-05-01T11:18:57;99187.13;;;19.36;42.21
73692;BME280;61996;49.910;35.562;2023-05-01T11:22:01;99186.31;;;19.36;42.14
73692;BME280;61996;49.910;35.562;2023-05-01T11:25:16;99179.81;;;19.38;42.52
73692;BME280;61996;49.910;35.562;2023-05-01T11:28:19;99189.19;;;19.42;42.21
73692;BME280;61996;49.910;35.562;2023-05-01T11:31:25;99191.03;;;19.42;42.06
73692;BME280;61996;49.910;35.562;2023-05-01T11:34:33;99188.38;;;19.42;42.08
73692;BME280;61996;49.910;35.562;2023-05-01T11:37:42;99196.03;;;19.45;42.13
73692;BME280;61996;49.910;35.562;2023-05-01T11:40:45;99190.88;;;19.43;42.58
73692;BME280;61996;49.910;35.562;2023-05-01T11:43:56;99196.03;;;19.45;42.27
73692;BME280;61996;49.910;35.562;2023-05-01T11:46:59;99189.72;;;19.46;42.51
73692;BME280;61996;49.910;35.562;2023-05-01T11:50:02;99191.25;;;19.49;42.13
73692;BME280;61996;49.910;35.562;2023-05-01T11:53:09;99197.81;;;19.54;41.92
73692;BME280;61996;49.910;35.562;2023-05-01T11:56:19;99198.78;;;19.53;42.23
73692;BME280;61996;49.910;35.562;2023-05-01T11:59:27;99202.59;;;19.51;42.16
73692;BME280;61996;49.910;35.562;2023-05-01T12:02:31;99200.78;;;19.51;42.19
73692;BME280;61996;49.910;35.562;2023-05-01T12:05:34;99198.78;;;19.53;41.91
73692;BME280;61996;49.910;35.562;2023-05-01T12:08:42;99203.28;;;19.53;41.92
73692;BME280;61996;49.910;35.562;2023-05-01T12:11:46;99205.09;;;19.52;42.00
73692;BME280;61996;49.910;35.562;2023-05-01T12:14:52;99207.78;;;19.52;41.90
73692;BME280;61996;49.910;35.562;2023-05-01T12:17:56;99214.50;;;19.56;42.11
73692;BME280;61996;49.910;35.562;2023-05-01T12:20:59;99215.19;;;19.58;41.71
73692;BME280;61996;49.910;35.562;2023-05-01T12:24:08;99219.69;;;19.58;41.77
73692;BME280;61996;49.910;35.562;2023-05-01T12:30:31;99224.88;;;19.59;41.66
73692;BME280;61996;49.910;35.562;2023-05-01T12:33:34;99225.72;;;19.60;41.65
73692;BME280;61996;49.910;35.562;2023-05-01T12:36:36;99225.72;;;19.60;42.01
73692;BME280;61996;49.910;35.562;2023-05-01T12:39:41;99222.25;;;19.67;41.69
73692;BME280;61996;49.910;35.562;2023-05-01T12:42:45;99223.44;;;19.65;41.75
73692;BME280;61996;49.910;35.562;2023-05-01T12:45:55;99227.16;;;19.72;41.73
73692;BME280;61996;49.910;35.562;2023-05-01T12:48:58;99226.22;;;19.28;41.84
73692;BME280;61996;49.910;35.562;2023-05-01T12:52:01;99233.06;;;19.12;42.17
73692;BME280;61996;49.910;35.562;2023-05-01T12:55:07;99231.59;;;19.00;42.63
73692;BME280;61996;49.910;35.562;2023-05-01T12:58:10;99234.66;;;18.78;42.54
73692;BME280;61996;49.910;35.562;2023-05-01T13:01:12;99244.03;;;18.82;42.45
73692;BME280;61996;49.910;35.562;2023-05-01T13:04:24;99248.56;;;18.72;42.61
73692;BME280;61996;49.910;35.562;2023-05-01T13:07:27;99247.59;;;18.73;42.56
73692;BME280;61996;49.910;35.562;2023-05-01T13:10:32;99255.84;;;18.70;43.03
73692;BME280;61996;49.910;35.562;2023-05-01T13:13:35;99260.84;;;18.82;42.42
73692;BME280;61996;49.910;35.562;2023-05-01T13:16:44;99264.50;;;18.81;42.69
73692;BME280;61996;49.910;35.562;2023-05-01T13:19:51;99270.81;;;18.80;42.59
73692;BME280;61996;49.910;35.562;2023-05-01T13:22:54;99270.66;;;18.82;42.84
73692;BME280;61996;49.910;35.562;2023-05-01T13:25:59;99271.06;;;18.87;42.67
73692;BME280;61996;49.910;35.562;2023-05-01T13:29:02;99272.81;;;18.78;42.71
73692;BME280;61996;49.910;35.562;2023-05-01T13:32:09;99277.09;;;18.89;42.71
73692;BME280;61996;49.910;35.562;2023-05-01T13:35:12;99271.25;;;18.76;42.41
73692;BME280;61996;49.910;35.562;2023-05-01T13:38:23;99281.22;;;18.74;42.82
73692;BME280;61996;49.910;35.562;2023-05-01T13:41:27;99276.47;;;18.68;42.23
73692;BME280;61996;49.910;35.562;2023-05-01T13:44:30;99287.50;;;18.82;42.11
73692;BME280;61996;49.910;35.562;2023-05-01T13:47:33;99285.88;;;18.99;42.00
73692;BME280;61996;49.910;35.562;2023-05-01T13:50:40;99275.16;;;19.09;41.35
73692;BME280;61996;49.910;35.562;2023-05-01T13:53:43;99281.31;;;19.09;41.74
73692;BME280;61996;49.910;35.562;2023-05-01T13:56:47;99293.66;;;19.10;41.40
73692;BME280;61996;49.910;35.562;2023-05-01T13:59:50;99287.16;;;19.23;41.60
73692;BME280;61996;49.910;35.562;2023-05-01T14:02:53;99285.72;;;19.28;41.84
73692;BME280;61996;49.910;35.562;2023-05-01T14:05:57;99296.50;;;19.54;41.15
73692;BME280;61996;49.910;35.562;2023-05-01T14:08:59;99300.41;;;19.60;41.11
73692;BME280;61996;49.910;35.562;2023-05-01T14:12:04;99297.44;;;19.63;41.15
73692;BME280;61996;49.910;35.562;2023-05-01T14:15:07;99295.44;;;19.65;40.89
73692;BME280;61996;49.910;35.562;2023-05-01T14:18:10;99314.28;;;19.63;40.87
73692;BME280;61996;49.910;35.562;2023-05-01T14:21:17;99308.63;;;19.66;40.88
73692;BME280;61996;49.910;35.562;2023-05-01T14:24:20;99316.66;;;19.39;41.42
73692;BME280;61996;49.910;35.562;2023-05-01T14:27:24;99316.91;;;19.18;41.61
73692;BME280;61996;49.910;35.562;2023-05-01T14:30:27;99318.69;;;19.27;41.30
73692;BME280;61996;49.910;35.562;2023-05-01T14:33:36;99322.00;;;19.11;41.52
73692;BME280;61996;49.910;35.562;2023-05-01T14:36:42;99324.13;;;19.53;41.44
73692;BME280;61996;49.910;35.562;2023-05-01T14:39:45;99321.72;;;19.60;41.20
73692;BME280;61996;49.910;35.562;2023-05-01T14:42:49;99336.75;;;19.61;40.93
73692;BME280;61996;49.910;35.562;2023-05-01T14:45:52;99333.25;;;19.60;41.12
73692;BME280;61996;49.910;35.562;2023-05-01T14:48:56;99336.06;;;19.59;41.14
73692;BME280;61996;49.910;35.562;2023-05-01T14:51:59;99336.38;;;19.74;41.41
73692;BME280;61996;49.910;35.562;2023-05-01T14:55:02;99344.63;;;19.62;41.43
73692;BME280;61996;49.910;35.562;2023-05-01T14:58:07;99343.03;;;19.69;41.30
73692;BME280;61996;49.910;35.562;2023-05-01T15:01:10;99342.34;;;19.85;41.48
73692;BME280;61996;49.910;35.562;2023-05-01T15:04:13;99340.13;;;19.81;41.43
73692;BME280;61996;49.910;35.562;2023-05-01T15:07:16;99351.41;;;19.75;41.49
73692;BME280;61996;49.910;35.562;2023-05-01T15:10:20;99351.72;;;19.71;41.58
73692;BME280;61996;49.910;35.562;2023-05-01T15:13:25;99352.84;;;19.69;41.62
73692;BME280;61996;49.910;35.562;2023-05-01T15:16:28;99360.25;;;19.75;41.79
73692;BME280;61996;49.910;35.562;2023-05-01T15:19:31;99358.88;;;19.71;41.61
73692;BME280;61996;49.910;35.562;2023-05-01T15:22:34;99361.34;;;19.82;41.75
73692;BME280;61996;49.910;35.562;2023-05-01T15:25:38;99363.47;;;19.79;41.58
73692;BME280;61996;49.910;35.562;2023-05-01T15:28:44;99345.63;;;19.79;41.79
73692;BME280;61996;49.910;35.562;2023-05-01T15:31:47;99359.41;;;19.75;42.07
73692;BME280;61996;49.910;35.562;2023-05-01T15:35:05;99363.47;;;19.79;41.62
73692;BME280;61996;49.910;35.562;2023-05-01T15:38:08;99370.78;;;19.77;41.85
73692;BME280;61996;49.910;35.562;2023-05-01T15:41:10;99373.13;;;19.80;41.68
73692;BME280;61996;49.910;35.562;2023-05-01T15:44:15;99377.09;;;19.76;41.69
73692;BME280;61996;49.910;35.562;2023-05-01T15:47:17;99386.06;;;19.75;41.58
73692;BME280;61996;49.910;35.562;2023-05-01T15:50:20;99399.13;;;19.78;41.52
73692;BME280;61996;49.910;35.562;2023-05-01T15:53:24;99397.16;;;19.80;41.54
73692;BME280;61996;49.910;35.562;2023-05-01T15:56:26;99405.47;;;19.77;41.44
73692;BME280;61996;49.910;35.562;2023-05-01T15:59:30;99406.06;;;19.70;41.56
73692;BME280;61996;49.910;35.562;2023-05-01T16:02:33;99419.41;;;19.70;41.55
73692;BME280;61996;49.910;35.562;2023-05-01T16:05:37;99425.56;;;19.71;41.56
73692;BME280;61996;49.910;35.562;2023-05-01T16:08:41;99426.72;;;19.68;41.90
73692;BME280;61996;49.910;35.562;2023-05-01T16:11:44;99439.66;;;19.63;41.69
73692;BME280;61996;49.910;35.562;2023-05-01T16:14:48;99441.66;;;19.61;41.65
73692;BME280;61996;49.910;35.562;2023-05-01T16:17:51;99448.94;;;19.59;41.88
73692;BME280;61996;49.910;35.562;2023-05-01T16:20:55;99459.34;;;19.62;41.78
73692;BME280;61996;49.910;35.562;2023-05-01T16:23:59;99458.50;;;19.62;41.75
73692;BME280;61996;49.910;35.562;2023-05-01T16:27:02;99467.69;;;19.67;41.76
73692;BME280;61996;49.910;35.562;2023-05-01T16:30:07;99468.16;;;19.63;41.91
73692;BME280;61996;49.910;35.562;2023-05-01T16:33:12;99471.69;;;19.63;41.80